createdAt,value
2024-01-14T00:00:54.440Z,-0.14
2024-01-14T00:03:23.186Z,-0.15
2024-01-14T00:05:53.432Z,-0.15
2024-01-14T00:08:22.183Z,-0.15
2024-01-14T00:10:50.975Z,-0.16
2024-01-14T00:13:19.644Z,-0.16
2024-01-14T00:15:48.267Z,-0.16
2024-01-14T00:18:17.011Z,-0.17
2024-01-14T00:20:46.014Z,-0.17
2024-01-14T00:23:16.070Z,-0.18
2024-01-14T00:25:44.732Z,-0.19
2024-01-14T00:28:13.845Z,-0.19
2024-01-14T00:30:42.965Z,-0.20
2024-01-14T00:33:12.260Z,-0.20
2024-01-14T00:35:44.617Z,-0.22
2024-01-14T00:38:16.269Z,-0.23
2024-01-14T00:40:45.251Z,-0.24
2024-01-14T00:43:13.961Z,-0.26
2024-01-14T00:45:42.760Z,-0.26
2024-01-14T00:48:11.877Z,-0.29
2024-01-14T00:50:40.815Z,-0.29
2024-01-14T00:53:09.544Z,-0.31
2024-01-14T00:55:40.320Z,-0.30
2024-01-14T00:58:08.995Z,-0.31
2024-01-14T01:00:37.923Z,-0.32
2024-01-14T01:03:07.107Z,-0.32
2024-01-14T01:05:35.969Z,-0.34
2024-01-14T01:08:05.691Z,-0.34
2024-01-14T01:10:34.421Z,-0.34
2024-01-14T01:13:04.657Z,-0.34
2024-01-14T01:15:33.525Z,-0.36
2024-01-14T01:18:02.542Z,-0.37
2024-01-14T01:20:31.379Z,-0.38
2024-01-14T01:23:00.266Z,-0.37
2024-01-14T01:25:29.414Z,-0.36
2024-01-14T01:27:58.011Z,-0.37
2024-01-14T01:30:28.245Z,-0.36
2024-01-14T01:32:57.126Z,-0.35
2024-01-14T01:35:25.940Z,-0.34
2024-01-14T01:37:55.368Z,-0.33
2024-01-14T01:40:24.261Z,-0.33
2024-01-14T01:42:53.729Z,-0.33
2024-01-14T01:45:22.630Z,-0.34
2024-01-14T01:47:53.484Z,-0.34
2024-01-14T01:50:22.456Z,-0.35
2024-01-14T01:52:51.859Z,-0.35
2024-01-14T01:55:20.846Z,-0.37
2024-01-14T01:57:49.470Z,-0.37
2024-01-14T02:00:19.163Z,-0.37
2024-01-14T02:02:48.339Z,-0.39
2024-01-14T02:05:20.617Z,-0.40
2024-01-14T02:07:49.091Z,-0.42
2024-01-14T02:10:18.311Z,-0.42
2024-01-14T02:12:47.074Z,-0.44
2024-01-14T02:15:16.016Z,-0.43
2024-01-14T02:17:45.046Z,-0.45
2024-01-14T02:20:15.656Z,-0.48
2024-01-14T02:22:47.381Z,-0.47
2024-01-14T02:25:17.331Z,-0.47
2024-01-14T02:27:45.982Z,-0.48
2024-01-14T02:30:15.166Z,-0.49
2024-01-14T02:32:44.181Z,-0.49
2024-01-14T02:35:13.002Z,-0.49
2024-01-14T02:37:45.032Z,-0.50
2024-01-14T02:40:14.139Z,-0.50
2024-01-14T02:42:44.229Z,-0.52
2024-01-14T02:45:13.040Z,-0.55
2024-01-14T02:47:42.064Z,-0.53
2024-01-14T02:50:11.556Z,-0.53
2024-01-14T02:52:40.284Z,-0.52
2024-01-14T02:55:09.149Z,-0.53
2024-01-14T02:57:37.574Z,-0.53
2024-01-14T03:00:09.221Z,-0.54
2024-01-14T03:02:39.075Z,-0.53
2024-01-14T03:05:08.714Z,-0.52
2024-01-14T03:07:37.305Z,-0.52
2024-01-14T03:10:06.264Z,-0.52
2024-01-14T03:12:35.546Z,-0.51
2024-01-14T03:15:05.529Z,-0.50
2024-01-14T03:17:35.820Z,-0.51
2024-01-14T03:20:04.781Z,-0.48
2024-01-14T03:22:33.577Z,-0.49
2024-01-14T03:25:02.476Z,-0.47
2024-01-14T03:27:31.340Z,-0.47
2024-01-14T03:30:00.112Z,-0.46
2024-01-14T03:32:29.862Z,-0.46
2024-01-14T03:34:59.978Z,-0.46
2024-01-14T03:37:29.523Z,-0.46
2024-01-14T03:39:59.564Z,-0.46
2024-01-14T03:42:28.206Z,-0.47
2024-01-14T03:44:58.127Z,-0.44
2024-01-14T03:47:27.061Z,-0.46
2024-01-14T03:49:55.966Z,-0.46
2024-01-14T03:52:26.059Z,-0.44
2024-01-14T03:54:56.119Z,-0.45
2024-01-14T03:57:25.296Z,-0.47
2024-01-14T03:59:54.269Z,-0.48
2024-01-14T04:02:23.189Z,-0.48
2024-01-14T04:04:53.817Z,-0.48
2024-01-14T04:07:22.772Z,-0.48
2024-01-14T04:09:53.080Z,-0.47
2024-01-14T04:12:21.938Z,-0.48
2024-01-14T04:14:50.815Z,-0.49
2024-01-14T04:17:19.629Z,-0.49
2024-01-14T04:19:48.309Z,-0.50
2024-01-14T04:22:17.025Z,-0.49
2024-01-14T04:24:46.047Z,-0.49
2024-01-14T04:27:16.231Z,-0.50
2024-01-14T04:29:45.042Z,-0.51
2024-01-14T04:32:13.931Z,-0.51
2024-01-14T04:34:42.974Z,-0.52
2024-01-14T04:37:11.815Z,-0.54
2024-01-14T04:39:40.509Z,-0.55
2024-01-14T04:42:09.280Z,-0.57
2024-01-14T04:44:39.218Z,-0.57
2024-01-14T04:47:08.072Z,-0.60
2024-01-14T04:49:36.860Z,-0.62
2024-01-14T04:52:07.711Z,-0.65
2024-01-14T04:54:36.338Z,-0.68
2024-01-14T04:57:06.051Z,-0.69
2024-01-14T04:59:35.132Z,-0.72
2024-01-14T05:02:06.126Z,-0.74
2024-01-14T05:04:35.040Z,-0.75
2024-01-14T05:07:04.942Z,-0.77
2024-01-14T05:09:34.006Z,-0.79
2024-01-14T05:12:03.146Z,-0.81
2024-01-14T05:14:31.871Z,-0.84
2024-01-14T05:17:00.572Z,-0.87
2024-01-14T05:19:31.796Z,-0.91
2024-01-14T05:22:00.438Z,-0.92
2024-01-14T05:24:29.869Z,-0.94
2024-01-14T05:26:58.670Z,-0.93
2024-01-14T05:29:27.320Z,-0.95
2024-01-14T05:31:55.938Z,-0.97
2024-01-14T05:34:24.890Z,-0.96
2024-01-14T05:36:55.051Z,-0.95
2024-01-14T05:39:23.895Z,-0.96
2024-01-14T05:41:52.732Z,-0.97
2024-01-14T05:44:21.526Z,-0.97
2024-01-14T05:46:50.282Z,-1.00
2024-01-14T05:49:18.987Z,-1.04
2024-01-14T05:51:47.620Z,-1.08
2024-01-14T05:54:18.004Z,-1.12
2024-01-14T05:56:47.072Z,-1.17
2024-01-14T05:59:15.946Z,-1.21
2024-01-14T06:01:44.985Z,-1.23
2024-01-14T06:04:14.148Z,-1.26
2024-01-14T06:06:43.275Z,-1.30
2024-01-14T06:09:12.077Z,-1.34
2024-01-14T06:11:43.678Z,-1.36
2024-01-14T06:14:12.891Z,-1.38
2024-01-14T06:16:41.577Z,-1.39
2024-01-14T06:19:10.734Z,-1.38
2024-01-14T06:21:42.968Z,-1.36
2024-01-14T06:24:15.167Z,-1.37
2024-01-14T06:26:45.154Z,-1.38
2024-01-14T06:29:54.646Z,-1.38
2024-01-14T06:32:46.268Z,-1.39
2024-01-14T06:35:18.748Z,-1.39
2024-01-14T06:37:48.656Z,-1.39
2024-01-14T06:40:21.781Z,-1.39
2024-01-14T06:42:59.732Z,-1.40
2024-01-14T06:45:29.355Z,-1.40
2024-01-14T06:47:58.156Z,-1.41
2024-01-14T06:50:27.091Z,-1.43
2024-01-14T06:52:55.960Z,-1.47
2024-01-14T06:55:25.338Z,-1.50
2024-01-14T06:57:54.207Z,-1.55
2024-01-14T07:00:25.322Z,-1.57
2024-01-14T07:02:54.189Z,-1.60
2024-01-14T07:05:23.015Z,-1.62
2024-01-14T07:07:52.355Z,-1.66
2024-01-14T07:10:21.159Z,-1.67
2024-01-14T07:12:50.084Z,-1.71
2024-01-14T07:15:18.806Z,-1.74
2024-01-14T07:17:55.475Z,-1.80
2024-01-14T07:20:28.407Z,-1.87
2024-01-14T07:23:39.020Z,-1.92
2024-01-14T07:25:46.153Z,-1.95
2024-01-14T07:28:15.254Z,-1.99
2024-01-14T07:30:44.196Z,-2.00
2024-01-14T07:33:14.456Z,-2.02
2024-01-14T07:35:43.260Z,-2.03
2024-01-14T07:38:12.110Z,-2.05
2024-01-14T07:40:42.480Z,-2.04
2024-01-14T07:43:11.732Z,-2.03
2024-01-14T07:45:40.644Z,-2.03
2024-01-14T07:48:09.621Z,-2.01
2024-01-14T07:50:39.853Z,-2.00
2024-01-14T07:53:10.787Z,-1.97
2024-01-14T07:55:39.618Z,-1.91
2024-01-14T07:58:13.055Z,-1.87
2024-01-14T08:00:52.024Z,-1.81
2024-01-14T08:03:30.315Z,-1.77
2024-01-14T08:06:00.830Z,-1.73
2024-01-14T08:08:30.217Z,-1.68
2024-01-14T08:10:59.000Z,-1.63
2024-01-14T08:13:27.746Z,-1.61
2024-01-14T08:16:01.894Z,-1.58
2024-01-14T08:18:32.944Z,-1.53
2024-01-14T08:21:04.124Z,-1.48
2024-01-14T08:23:34.046Z,-1.45
2024-01-14T08:26:04.403Z,-1.42
2024-01-14T08:28:34.319Z,-1.38
2024-01-14T08:31:03.536Z,-1.33
2024-01-14T08:33:32.533Z,-1.29
2024-01-14T08:36:03.500Z,-1.27
2024-01-14T08:38:32.460Z,-1.24
2024-01-14T08:41:02.617Z,-1.20
2024-01-14T08:43:31.350Z,-1.17
2024-01-14T08:46:00.205Z,-1.15
2024-01-14T08:48:29.956Z,-1.12
2024-01-14T08:51:00.771Z,-1.10
2024-01-14T08:53:31.264Z,-1.11
2024-01-14T08:56:00.059Z,-1.09
2024-01-14T08:58:29.785Z,-1.09
2024-01-14T09:00:58.599Z,-1.09
2024-01-14T09:03:29.606Z,-1.09
2024-01-14T09:05:58.612Z,-1.10
2024-01-14T09:08:27.330Z,-1.11
2024-01-14T09:10:57.429Z,-1.09
2024-01-14T09:13:26.073Z,-1.12
2024-01-14T09:15:55.005Z,-1.11
2024-01-14T09:18:24.115Z,-1.12
2024-01-14T09:20:53.024Z,-1.13
2024-01-14T09:23:21.875Z,-1.16
2024-01-14T09:25:50.569Z,-1.15
2024-01-14T09:28:20.779Z,-1.15
2024-01-14T09:30:49.830Z,-1.12
2024-01-14T09:33:18.959Z,-1.13
2024-01-14T09:35:47.597Z,-1.12
2024-01-14T09:38:16.208Z,-1.10
2024-01-14T09:40:44.836Z,-1.08
2024-01-14T09:43:14.780Z,-1.05
2024-01-14T09:45:47.522Z,-1.03
2024-01-14T09:48:20.198Z,-1.04
2024-01-14T09:50:50.183Z,-1.02
2024-01-14T09:53:19.607Z,-0.96
2024-01-14T09:55:51.988Z,-0.90
2024-01-14T09:58:22.142Z,-0.84
2024-01-14T10:00:54.991Z,-0.79
2024-01-14T10:03:23.659Z,-0.76
2024-01-14T10:05:53.164Z,-0.73
2024-01-14T10:08:21.999Z,-0.74
2024-01-14T10:10:57.919Z,-0.73
2024-01-14T10:13:29.337Z,-0.71
2024-01-14T10:15:59.813Z,-0.70
2024-01-14T10:18:30.113Z,-0.70
2024-01-14T10:21:02.271Z,-0.70
2024-01-14T10:23:32.727Z,-0.71
2024-01-14T10:26:03.521Z,-0.71
2024-01-14T10:28:36.216Z,-0.70
2024-01-14T10:31:09.014Z,-0.69
2024-01-14T10:33:38.671Z,-0.66
2024-01-14T10:36:10.155Z,-0.64
2024-01-14T10:38:39.251Z,-0.59
2024-01-14T10:41:08.030Z,-0.54
2024-01-14T10:43:37.903Z,-0.50
2024-01-14T10:46:09.757Z,-0.44
2024-01-14T10:48:43.084Z,-0.41
2024-01-14T10:51:14.007Z,-0.37
2024-01-14T10:53:55.393Z,-0.34
2024-01-14T10:56:31.834Z,-0.29
2024-01-14T10:59:03.337Z,-0.27
2024-01-14T11:01:36.396Z,-0.29
2024-01-14T11:04:06.734Z,-0.29
2024-01-14T11:06:37.534Z,-0.30
2024-01-14T11:09:06.486Z,-0.29
2024-01-14T11:11:42.769Z,-0.32
2024-01-14T11:14:18.160Z,-0.34
2024-01-14T11:16:54.196Z,-0.39
2024-01-14T11:19:33.727Z,-0.40
2024-01-14T11:22:30.959Z,-0.43
2024-01-14T11:25:06.570Z,-0.43
2024-01-14T11:27:36.565Z,-0.44
2024-01-14T11:30:05.901Z,-0.46
2024-01-14T11:32:36.183Z,-0.48
2024-01-14T11:35:06.594Z,-0.47
2024-01-14T11:37:45.868Z,-0.46
2024-01-14T11:40:34.861Z,-0.40
2024-01-14T11:43:08.562Z,-0.39
2024-01-14T11:45:41.505Z,-0.39
2024-01-14T11:48:14.111Z,-0.37
2024-01-14T11:50:43.543Z,-0.31
2024-01-14T11:53:12.682Z,-0.28
2024-01-14T11:55:42.970Z,-0.29
2024-01-14T11:58:13.218Z,-0.29
2024-01-14T12:00:42.577Z,-0.25
2024-01-14T12:03:15.195Z,-0.23
2024-01-14T12:05:44.780Z,-0.22
2024-01-14T12:08:14.617Z,-0.24
2024-01-14T12:10:42.721Z,-0.25
2024-01-14T12:13:11.412Z,-0.27
2024-01-14T12:15:41.619Z,-0.27
2024-01-14T12:18:18.203Z,-0.25
2024-01-14T12:20:46.841Z,-0.21
2024-01-14T12:23:16.088Z,-0.22
2024-01-14T12:25:44.837Z,-0.22
2024-01-14T12:28:13.451Z,-0.24
2024-01-14T12:30:42.185Z,-0.24
2024-01-14T12:33:12.619Z,-0.23
2024-01-14T12:35:43.941Z,-0.23
2024-01-14T12:38:12.553Z,-0.23
2024-01-14T12:40:41.281Z,-0.23
2024-01-14T12:43:10.245Z,-0.22
2024-01-14T12:45:47.346Z,-0.21
2024-01-14T12:48:22.583Z,-0.21
2024-01-14T12:50:58.122Z,-0.25
2024-01-14T12:53:28.107Z,-0.25
2024-01-14T12:56:10.889Z,-0.26
2024-01-14T12:58:40.236Z,-0.27
2024-01-14T13:01:10.527Z,-0.27
2024-01-14T13:03:40.836Z,-0.27
2024-01-14T13:06:11.151Z,-0.27
2024-01-14T13:08:40.301Z,-0.27
2024-01-14T13:11:08.959Z,-0.29
2024-01-14T13:13:38.960Z,-0.29
2024-01-14T13:16:07.962Z,-0.30
2024-01-14T13:18:36.911Z,-0.30
2024-01-14T13:21:05.882Z,-0.29
2024-01-14T13:23:35.879Z,-0.26
2024-01-14T13:26:05.094Z,-0.24
2024-01-14T13:28:34.390Z,-0.21
2024-01-14T13:31:03.356Z,-0.20
2024-01-14T13:33:32.403Z,-0.21
2024-01-14T13:36:02.281Z,-0.21
2024-01-14T13:38:31.055Z,-0.24
2024-01-14T13:41:01.113Z,-0.24
2024-01-14T13:43:29.752Z,-0.23
2024-01-14T13:45:58.470Z,-0.23
2024-01-14T13:48:28.359Z,-0.19
2024-01-14T13:50:57.199Z,-0.21
2024-01-14T13:53:26.186Z,-0.22
2024-01-14T13:55:55.243Z,-0.26
2024-01-14T13:58:25.249Z,-0.26
2024-01-14T14:00:54.197Z,-0.26
2024-01-14T14:03:23.721Z,-0.25
2024-01-14T14:05:56.157Z,-0.27
2024-01-14T14:08:26.069Z,-0.30
2024-01-14T14:11:00.134Z,-0.33
2024-01-14T14:13:33.743Z,-0.38
2024-01-14T14:16:03.768Z,-0.42
2024-01-14T14:18:32.788Z,-0.48
2024-01-14T14:21:02.488Z,-0.50
2024-01-14T14:23:32.647Z,-0.49
2024-01-14T14:26:02.295Z,-0.53
2024-01-14T14:28:32.495Z,-0.54
2024-01-14T14:31:02.598Z,-0.54
2024-01-14T14:33:31.845Z,-0.54
2024-01-14T14:36:00.954Z,-0.56
2024-01-14T14:38:29.635Z,-0.57
2024-01-14T14:40:58.835Z,-0.60
2024-01-14T14:43:28.461Z,-0.61
2024-01-14T14:45:58.716Z,-0.62
2024-01-14T14:48:27.749Z,-0.61
2024-01-14T14:50:56.541Z,-0.64
2024-01-14T14:53:25.512Z,-0.64
2024-01-14T14:55:54.489Z,-0.64
2024-01-14T14:58:23.322Z,-0.64
2024-01-14T15:00:52.374Z,-0.66
2024-01-14T15:03:22.684Z,-0.68
2024-01-14T15:05:51.474Z,-0.70
2024-01-14T15:08:20.268Z,-0.72
2024-01-14T15:10:48.866Z,-0.74
2024-01-14T15:13:17.229Z,-0.74
2024-01-14T15:15:48.162Z,-0.76
2024-01-14T15:18:18.271Z,-0.77
2024-01-14T15:20:48.351Z,-0.79
2024-01-14T15:23:17.063Z,-0.82
2024-01-14T15:25:45.939Z,-0.83
2024-01-14T15:28:15.192Z,-0.86
2024-01-14T15:30:53.322Z,-0.89
2024-01-14T15:33:31.134Z,-0.93
2024-01-14T15:36:02.782Z,-0.94
2024-01-14T15:38:33.121Z,-0.95
2024-01-14T15:41:06.539Z,-0.98
2024-01-14T15:43:36.598Z,-1.06
2024-01-14T15:46:06.132Z,-1.08
2024-01-14T15:48:39.954Z,-1.12
2024-01-14T15:51:13.665Z,-1.14
2024-01-14T15:53:43.903Z,-1.14
2024-01-14T15:56:13.666Z,-1.16
2024-01-14T15:58:43.035Z,-1.19
2024-01-14T16:01:14.555Z,-1.20
2024-01-14T16:03:46.172Z,-1.21
2024-01-14T16:06:17.816Z,-1.22
2024-01-14T16:08:47.792Z,-1.23
2024-01-14T16:11:17.117Z,-1.23
2024-01-14T16:13:46.181Z,-1.26
2024-01-14T16:16:15.024Z,-1.27
2024-01-14T16:18:43.861Z,-1.27
2024-01-14T16:21:12.710Z,-1.27
2024-01-14T16:23:42.949Z,-1.30
2024-01-14T16:26:11.690Z,-1.33
2024-01-14T16:28:42.364Z,-1.33
2024-01-14T16:31:13.993Z,-1.35
2024-01-14T16:33:46.086Z,-1.35
2024-01-14T16:36:17.620Z,-1.38
2024-01-14T16:38:48.673Z,-1.39
2024-01-14T16:41:17.871Z,-1.39
2024-01-14T16:43:48.457Z,-1.39
2024-01-14T16:46:19.126Z,-1.40
2024-01-14T16:48:47.975Z,-1.41
2024-01-14T16:51:17.433Z,-1.40
2024-01-14T16:53:49.344Z,-1.38
2024-01-14T16:56:18.211Z,-1.38
2024-01-14T16:58:46.975Z,-1.39
2024-01-14T17:01:18.818Z,-1.36
2024-01-14T17:03:50.536Z,-1.35
2024-01-14T17:06:21.024Z,-1.34
2024-01-14T17:08:51.819Z,-1.33
2024-01-14T17:11:24.581Z,-1.32
2024-01-14T17:13:53.659Z,-1.31
2024-01-14T17:16:27.316Z,-1.33
2024-01-14T17:19:01.024Z,-1.33
2024-01-14T17:21:30.469Z,-1.33
2024-01-14T17:24:00.642Z,-1.35
2024-01-14T17:26:29.790Z,-1.35
2024-01-14T17:28:58.420Z,-1.35
2024-01-14T17:31:27.188Z,-1.38
2024-01-14T17:33:56.302Z,-1.41
2024-01-14T17:36:25.677Z,-1.43
2024-01-14T17:38:54.649Z,-1.44
2024-01-14T17:41:24.952Z,-1.42
2024-01-14T17:43:53.710Z,-1.41
2024-01-14T17:46:23.443Z,-1.39
2024-01-14T17:48:54.305Z,-1.44
2024-01-14T17:51:24.349Z,-1.52
2024-01-14T17:53:53.742Z,-1.58
2024-01-14T17:56:27.698Z,-1.61
2024-01-14T17:58:56.528Z,-1.64
2024-01-14T18:01:25.632Z,-1.66
2024-01-14T18:03:54.863Z,-1.69
2024-01-14T18:06:24.414Z,-1.71
2024-01-14T18:08:53.683Z,-1.74
2024-01-14T18:11:22.624Z,-1.77
2024-01-14T18:13:52.765Z,-1.81
2024-01-14T18:16:21.489Z,-1.85
2024-01-14T18:18:52.410Z,-1.89
2024-01-14T18:21:22.701Z,-1.91
2024-01-14T18:23:54.124Z,-1.96
2024-01-14T18:26:23.494Z,-2.00
2024-01-14T18:28:53.881Z,-2.07
2024-01-14T18:31:23.955Z,-2.13
2024-01-14T18:33:52.958Z,-2.17
2024-01-14T18:36:22.889Z,-2.20
2024-01-14T18:38:51.679Z,-2.20
2024-01-14T18:41:21.230Z,-2.20
2024-01-14T18:43:49.896Z,-2.21
2024-01-14T18:46:19.947Z,-2.20
2024-01-14T18:48:48.611Z,-2.22
2024-01-14T18:51:17.916Z,-2.20
2024-01-14T18:53:46.766Z,-2.19
2024-01-14T18:56:15.543Z,-2.19
2024-01-14T18:58:44.597Z,-2.19
2024-01-14T19:01:14.026Z,-2.19
2024-01-14T19:03:44.354Z,-2.20
2024-01-14T19:06:13.356Z,-2.21
2024-01-14T19:08:42.057Z,-2.23
2024-01-14T19:11:10.933Z,-2.22
2024-01-14T19:13:39.568Z,-2.22
2024-01-14T19:16:10.126Z,-2.20
2024-01-14T19:18:39.125Z,-2.19
2024-01-14T19:21:09.316Z,-2.20
2024-01-14T19:23:37.981Z,-2.21
2024-01-14T19:26:06.685Z,-2.20
2024-01-14T19:28:35.681Z,-2.20
2024-01-14T19:31:05.653Z,-2.22
2024-01-14T19:33:34.662Z,-2.22
2024-01-14T19:36:08.843Z,-2.24
2024-01-14T19:38:40.173Z,-2.25
2024-01-14T19:41:08.907Z,-2.26
2024-01-14T19:43:39.158Z,-2.26
2024-01-14T19:46:07.903Z,-2.30
2024-01-14T19:48:36.815Z,-2.33
2024-01-14T19:51:06.226Z,-2.35
2024-01-14T19:53:34.971Z,-2.39
2024-01-14T19:56:07.468Z,-2.39
2024-01-14T19:58:36.349Z,-2.38
2024-01-14T20:01:08.593Z,-2.40
2024-01-14T20:03:37.536Z,-2.41
2024-01-14T20:06:07.016Z,-2.40
2024-01-14T20:08:35.906Z,-2.40
2024-01-14T20:11:08.563Z,-2.40
2024-01-14T20:13:37.315Z,-2.40
2024-01-14T20:16:06.482Z,-2.39
2024-01-14T20:18:35.511Z,-2.40
2024-01-14T20:21:05.371Z,-2.39
2024-01-14T20:23:34.345Z,-2.38
2024-01-14T20:26:03.570Z,-2.38
2024-01-14T20:28:34.113Z,-2.39
2024-01-14T20:31:03.730Z,-2.37
2024-01-14T20:33:32.853Z,-2.35
2024-01-14T20:36:04.005Z,-2.32
2024-01-14T20:38:32.654Z,-2.30
2024-01-14T20:41:02.215Z,-2.27
2024-01-14T20:43:32.277Z,-2.25
2024-01-14T20:46:00.647Z,-2.22
2024-01-14T20:48:29.885Z,-2.20
2024-01-14T20:50:58.535Z,-2.21
2024-01-14T20:53:27.551Z,-2.21
2024-01-14T20:55:56.417Z,-2.21
2024-01-14T20:58:25.330Z,-2.21
2024-01-14T21:00:55.407Z,-2.21
2024-01-14T21:03:24.589Z,-2.23
2024-01-14T21:05:53.634Z,-2.21
2024-01-14T21:08:22.792Z,-2.19
2024-01-14T21:10:51.655Z,-2.20
2024-01-14T21:13:20.331Z,-2.19
2024-01-14T21:15:49.694Z,-2.20
2024-01-14T21:18:23.304Z,-2.20
2024-01-14T21:20:52.883Z,-2.19
2024-01-14T21:23:21.783Z,-2.18
2024-01-14T21:25:50.683Z,-2.16
2024-01-14T21:28:19.392Z,-2.16
2024-01-14T21:30:48.243Z,-2.13
2024-01-14T21:33:17.598Z,-2.12
2024-01-14T21:35:47.801Z,-2.13
2024-01-14T21:38:16.598Z,-2.13
2024-01-14T21:40:45.536Z,-2.12
2024-01-14T21:43:14.221Z,-2.12
2024-01-14T21:45:43.166Z,-2.11
2024-01-14T21:48:12.059Z,-2.11
2024-01-14T21:50:40.940Z,-2.10
2024-01-14T21:53:10.911Z,-2.11
2024-01-14T21:55:46.843Z,-2.12
2024-01-14T21:58:15.718Z,-2.12
2024-01-14T22:00:44.562Z,-2.13
2024-01-14T22:03:13.649Z,-2.12
2024-01-14T22:05:43.361Z,-2.14
2024-01-14T22:08:13.836Z,-2.15
2024-01-14T22:10:42.585Z,-2.14
2024-01-14T22:13:11.489Z,-2.14
2024-01-14T22:15:40.229Z,-2.12
2024-01-14T22:18:09.721Z,-2.11
2024-01-14T22:20:38.447Z,-2.09
2024-01-14T22:23:07.245Z,-2.09
2024-01-14T22:25:37.318Z,-2.08
2024-01-14T22:28:06.943Z,-2.08
2024-01-14T22:30:35.885Z,-2.09
2024-01-14T22:33:05.103Z,-2.09
2024-01-14T22:35:34.164Z,-2.11
2024-01-14T22:38:05.330Z,-2.13
2024-01-14T22:40:34.313Z,-2.13
2024-01-14T22:43:04.637Z,-2.14
2024-01-14T22:45:34.130Z,-2.15
2024-01-14T22:48:04.512Z,-2.16
2024-01-14T22:50:33.391Z,-2.16
2024-01-14T22:53:02.262Z,-2.14
2024-01-14T22:55:30.998Z,-2.13
2024-01-14T22:57:59.563Z,-2.14
2024-01-14T23:00:29.930Z,-2.14
2024-01-14T23:02:58.830Z,-2.13
2024-01-14T23:05:27.434Z,-2.12
2024-01-14T23:07:56.261Z,-2.10
2024-01-14T23:10:25.805Z,-2.08
2024-01-14T23:12:54.746Z,-2.04
2024-01-14T23:15:23.581Z,-2.03
2024-01-14T23:17:55.288Z,-2.02
2024-01-14T23:20:24.025Z,-1.99
2024-01-14T23:22:52.972Z,-1.95
2024-01-14T23:25:21.959Z,-1.93
2024-01-14T23:27:50.647Z,-1.91
2024-01-14T23:30:19.599Z,-1.88
2024-01-14T23:32:48.417Z,-1.87
2024-01-14T23:35:18.951Z,-1.85
2024-01-14T23:37:47.673Z,-1.83
2024-01-14T23:40:16.566Z,-1.81
2024-01-14T23:42:47.510Z,-1.80
2024-01-14T23:45:18.208Z,-1.79
2024-01-14T23:47:49.060Z,-1.79
2024-01-14T23:50:19.157Z,-1.80
2024-01-14T23:52:47.823Z,-1.78
2024-01-14T23:55:17.057Z,-1.77
2024-01-14T23:57:48.622Z,-1.79
